Terminal Aerodrome Forecast
Issued by NWS

Current Version | Previous Version | Text Only | Print | Product List | Glossary Off
Versions: 1 2 3 4 5 6 7 8 9 10 11 12 13 14 15 16 17 18 19 20 21 22 23 24 25 26 27 28 29 30 31

000
FTUS41 KILN 272331
TAFLUK
TAF
KLUK 272331Z 2800/2824 07004KT P6SM VCSH SCT040 BKN150
     FM280200 07003KT 4SM BR SCT040 BKN100
     FM280800 00000KT 1SM BR FEW020 SCT250
      TEMPO 2809/2812 1/2SM FG VV002
     FM281300 VRB03KT 5SM BR FEW012 SCT250
     FM281700 12006KT P6SM VCSH FEW025 BKN040=

USA.gov is the U.S. government's official web portal to all federal, state and local government web resources and services.